Time;durP1;ratioP1;P1;durP2;ratioP2;P2;SDS_P1;SDS_P2;PMS_P1;PMS_P2;Temp;Humidity;BMP_temperature;BMP_pressure;BME280_temperature;BME280_humidity;BME280_pressure;Samples;Min_cycle;Max_cycle;Signal;HPM_P1;HPM_P2
2023/06/24 00:00:58;;;;;;;3.63;2.80;;;24.60;74.20;;;;;;5035054;28;20107;-85
2023/06/24 00:03:24;;;;;;;2.50;2.20;;;24.60;74.20;;;;;;5033881;28;20026;-85
2023/06/24 00:05:50;;;;;;;3.05;2.78;;;24.60;74.20;;;;;;5035421;28;20053;-85
2023/06/24 00:08:19;;;;;;;3.33;3.03;;;24.60;74.30;;;;;;5017416;28;20071;-85
2023/06/24 00:10:46;;;;;;;3.85;2.80;;;24.60;74.40;;;;;;5034421;28;20120;-84
2023/06/24 00:13:12;;;;;;;4.97;3.10;;;24.60;74.40;;;;;;5033810;28;20470;-85
2023/06/24 00:15:42;;;;;;;5.53;2.80;;;24.60;74.50;;;;;;5017339;28;20052;-84
2023/06/24 00:18:11;;;;;;;3.22;2.60;;;24.60;74.50;;;;;;5034565;28;20080;-85
2023/06/24 00:20:37;;;;;;;3.17;2.70;;;24.60;74.60;;;;;;5017565;28;20061;-84
2023/06/24 00:23:03;;;;;;;3.13;2.83;;;24.50;74.60;;;;;;5034868;28;20037;-84
2023/06/24 00:25:30;;;;;;;3.58;2.95;;;24.60;74.50;;;;;;5034811;28;20037;-85
2023/06/24 00:27:55;;;;;;;3.03;2.72;;;24.60;74.50;;;;;;5033421;28;20096;-85
2023/06/24 00:30:22;;;;;;;2.60;2.38;;;24.60;74.50;;;;;;5033332;28;20041;-85
2023/06/24 00:32:48;;;;;;;3.22;2.40;;;24.60;74.60;;;;;;5034390;28;20083;-84
2023/06/24 00:35:14;;;;;;;5.70;2.53;;;24.60;74.60;;;;;;5033459;28;20466;-85
2023/06/24 00:37:40;;;;;;;3.35;3.00;;;24.60;74.70;;;;;;5034680;28;20026;-84
2023/06/24 00:40:10;;;;;;;3.85;2.92;;;24.60;74.70;;;;;;5034257;28;20377;-84
2023/06/24 00:42:35;;;;;;;2.92;2.70;;;24.60;74.70;;;;;;5033261;28;20140;-84
2023/06/24 00:45:04;;;;;;;3.00;2.70;;;24.60;74.70;;;;;;5033495;28;20052;-84
2023/06/24 00:47:31;;;;;;;3.00;2.70;;;24.60;74.80;;;;;;5034588;28;20021;-84
2023/06/24 00:49:57;;;;;;;3.00;2.80;;;24.50;74.80;;;;;;5017283;28;20036;-84
2023/06/24 00:52:23;;;;;;;3.50;3.20;;;24.60;74.90;;;;;;5017245;28;20037;-84
2023/06/24 00:54:49;;;;;;;3.38;2.67;;;24.50;74.90;;;;;;5034927;28;20123;-83
2023/06/24 00:57:17;;;;;;;3.30;2.47;;;24.50;75.00;;;;;;5033638;28;20538;-84
2023/06/24 00:59:46;;;;;;;3.35;2.63;;;24.50;75.00;;;;;;5033504;28;20061;-84
2023/06/24 01:02:12;;;;;;;3.92;3.08;;;24.50;75.10;;;;;;5033948;28;20035;-85
2023/06/24 01:04:38;;;;;;;3.78;2.50;;;24.50;75.10;;;;;;5033410;28;20052;-84
2023/06/24 01:07:05;;;;;;;4.03;2.40;;;24.50;75.20;;;;;;5034109;28;20029;-84
2023/06/24 01:09:31;;;;;;;3.17;2.85;;;24.50;75.20;;;;;;5034835;28;20463;-85
2023/06/24 01:11:56;;;;;;;2.78;2.55;;;24.50;75.20;;;;;;5033267;28;20026;-85
2023/06/24 01:14:23;;;;;;;3.03;2.53;;;24.50;75.20;;;;;;5032595;28;20059;-84
2023/06/24 01:16:59;;;;;;;3.38;2.55;;;24.50;75.20;;;;;;5033255;28;20033;-85
2023/06/24 01:19:57;;;;;;;2.65;2.45;;;24.50;75.20;;;;;;5034242;28;20167;-85
2023/06/24 01:22:46;;;;;;;2.80;2.58;;;24.50;75.20;;;;;;5033259;28;20052;-85
2023/06/24 01:25:24;;;;;;;4.90;3.15;;;24.40;75.30;;;;;;5034060;28;20034;-85
2023/06/24 01:28:30;;;;;;;3.95;3.10;;;24.40;75.50;;;;;;5033126;28;20385;-84
2023/06/24 01:31:34;;;;;;;3.00;2.70;;;24.30;75.70;;;;;;5033800;28;20462;-83
2023/06/24 01:34:29;;;;;;;2.85;2.65;;;24.30;75.80;;;;;;5032905;28;20492;-84
2023/06/24 01:37:14;;;;;;;5.10;3.33;;;24.30;75.90;;;;;;5034095;28;20040;-85
2023/06/24 01:39:48;;;;;;;5.05;2.72;;;24.30;75.90;;;;;;5034122;28;20021;-86
2023/06/24 01:42:16;;;;;;;4.32;3.22;;;24.30;76.00;;;;;;5033879;28;20052;-85
2023/06/24 01:44:45;;;;;;;6.15;4.18;;;24.20;75.90;;;;;;5033937;28;20120;-85
2023/06/24 01:47:12;;;;;;;4.93;4.28;;;24.30;76.20;;;;;;5033690;28;20021;-86
2023/06/24 01:49:41;;;;;;;6.05;4.70;;;24.10;76.10;;;;;;5033930;28;20030;-86
2023/06/24 01:52:10;;;;;;;3.80;3.40;;;24.10;76.60;;;;;;5033140;28;20095;-86
2023/06/24 01:54:40;;;;;;;6.20;4.40;;;23.90;76.90;;;;;;5032025;28;20048;-85
2023/06/24 01:57:08;;;;;;;4.50;3.50;;;23.80;77.30;;;;;;5033558;28;20057;-85
2023/06/24 01:59:36;;;;;;;3.85;3.38;;;23.80;77.50;;;;;;5032503;28;20029;-84
2023/06/24 02:02:03;;;;;;;4.38;3.45;;;23.80;77.60;;;;;;5033526;28;20032;-86
2023/06/24 02:04:31;;;;;;;3.45;3.08;;;23.70;77.70;;;;;;5015595;28;20033;-86
2023/06/24 02:07:01;;;;;;;4.45;3.75;;;23.70;77.80;;;;;;5033388;28;20095;-86
2023/06/24 02:09:28;;;;;;;4.40;4.00;;;23.70;77.90;;;;;;5033955;28;20077;-85
2023/06/24 02:11:56;;;;;;;5.20;4.63;;;23.70;78.40;;;;;;5015749;28;20036;-85
2023/06/24 02:14:23;;;;;;;4.93;4.35;;;23.70;78.60;;;;;;5033000;28;20033;-85
2023/06/24 02:16:50;;;;;;;4.20;3.50;;;23.60;78.70;;;;;;5016510;28;20377;-84
2023/06/24 02:19:17;;;;;;;6.68;3.67;;;23.70;78.70;;;;;;5032069;28;20030;-85
2023/06/24 02:21:44;;;;;;;3.92;3.50;;;23.70;78.70;;;;;;5032895;28;20381;-83
2023/06/24 02:24:11;;;;;;;3.78;3.40;;;23.70;78.60;;;;;;5032558;28;20080;-85
2023/06/24 02:26:40;;;;;;;3.90;3.47;;;23.70;78.40;;;;;;5033677;28;20051;-84
2023/06/24 02:29:10;;;;;;;4.50;3.90;;;23.80;78.40;;;;;;5031990;28;20033;-85
2023/06/24 02:31:36;;;;;;;4.40;4.00;;;23.80;78.40;;;;;;5032013;28;20071;-84
2023/06/24 02:34:01;;;;;;;3.72;2.70;;;23.70;78.50;;;;;;5032161;28;20038;-85
2023/06/24 02:36:27;;;;;;;5.20;4.18;;;23.70;78.50;;;;;;5033251;28;20389;-84
2023/06/24 02:38:53;;;;;;;4.00;3.40;;;23.70;78.50;;;;;;5015795;28;20034;-84
2023/06/24 02:41:19;;;;;;;4.15;3.40;;;23.80;78.50;;;;;;5033673;28;20080;-84
2023/06/24 02:43:45;;;;;;;3.85;3.33;;;23.80;78.60;;;;;;5036960;28;20551;-85
2023/06/24 02:46:11;;;;;;;4.30;3.90;;;23.80;78.50;;;;;;5036818;28;20045;-85
2023/06/24 02:48:38;;;;;;;3.75;3.40;;;23.80;78.60;;;;;;5037122;28;20377;-84
2023/06/24 02:51:07;;;;;;;3.53;3.22;;;23.80;78.60;;;;;;5036121;28;20022;-84
2023/06/24 02:53:33;;;;;;;3.80;3.25;;;23.80;78.60;;;;;;5036851;28;20029;-84
2023/06/24 02:55:59;;;;;;;3.90;3.58;;;23.70;79.20;;;;;;5037066;28;20034;-84
2023/06/24 02:58:31;;;;;;;5.57;4.75;;;23.80;78.60;;;;;;5035560;28;20557;-84
2023/06/24 03:00:59;;;;;;;4.07;3.70;;;23.80;78.60;;;;;;5036240;28;20416;-84
2023/06/24 03:03:27;;;;;;;4.35;3.95;;;23.70;78.60;;;;;;5035351;28;20033;-84
2023/06/24 03:05:54;;;;;;;4.15;3.75;;;23.70;78.90;;;;;;5034849;28;20030;-84
2023/06/24 03:08:20;;;;;;;6.43;4.88;;;23.70;78.90;;;;;;5036136;28;20370;-82
2023/06/24 03:10:46;;;;;;;6.00;5.40;;;23.60;79.00;;;;;;5036010;28;20421;-84
2023/06/24 03:13:12;;;;;;;5.03;4.30;;;23.60;79.00;;;;;;5036377;28;20039;-85
2023/06/24 03:15:37;;;;;;;4.25;3.85;;;23.60;79.10;;;;;;5036392;28;20030;-84
2023/06/24 03:18:03;;;;;;;3.63;3.25;;;23.60;79.10;;;;;;5035402;28;20033;-84
2023/06/24 03:20:35;;;;;;;3.20;2.90;;;23.60;79.00;;;;;;5035908;28;20116;-85
2023/06/24 03:23:01;;;;;;;3.92;3.28;;;23.60;78.90;;;;;;5035198;28;20132;-84
2023/06/24 03:25:27;;;;;;;4.68;3.53;;;23.60;78.90;;;;;;5034893;28;20069;-85
2023/06/24 03:27:52;;;;;;;4.28;3.50;;;23.70;78.90;;;;;;5036010;28;20068;-85
2023/06/24 03:30:18;;;;;;;3.33;3.03;;;23.70;78.90;;;;;;5036211;28;20037;-85
2023/06/24 03:32:46;;;;;;;4.22;3.70;;;23.70;78.90;;;;;;5034878;28;20053;-84
2023/06/24 03:35:12;;;;;;;3.45;3.15;;;23.70;78.90;;;;;;5034582;28;20037;-84
2023/06/24 03:37:38;;;;;;;5.35;4.85;;;23.70;78.90;;;;;;5018590;28;20508;-84
2023/06/24 03:40:04;;;;;;;4.93;3.83;;;23.70;79.10;;;;;;5035298;28;20072;-85
2023/06/24 03:42:29;;;;;;;4.93;4.28;;;23.60;79.30;;;;;;5018601;28;20053;-84
2023/06/24 03:44:55;;;;;;;3.72;3.30;;;23.60;79.30;;;;;;5017875;28;20393;-84
2023/06/24 03:47:21;;;;;;;6.15;3.83;;;23.60;79.40;;;;;;5035451;28;20030;-84
2023/06/24 03:49:46;;;;;;;4.95;4.13;;;23.60;79.40;;;;;;5034372;28;20044;-84
2023/06/24 03:52:12;;;;;;;3.00;2.80;;;23.60;79.40;;;;;;5033791;28;20450;-84
2023/06/24 03:54:38;;;;;;;3.17;2.88;;;23.60;79.30;;;;;;5034377;28;20038;-84
2023/06/24 03:57:04;;;;;;;4.38;3.95;;;23.70;79.30;;;;;;5034367;28;20029;-84
2023/06/24 03:59:30;;;;;;;4.20;3.80;;;23.60;79.30;;;;;;5034910;28;20045;-85
2023/06/24 04:01:55;;;;;;;4.57;4.18;;;23.60;79.30;;;;;;5018195;28;20454;-84
2023/06/24 04:04:23;;;;;;;4.13;3.72;;;23.60;79.40;;;;;;5018188;28;20033;-84
2023/06/24 04:06:48;;;;;;;4.10;3.80;;;23.70;79.50;;;;;;5035057;28;20025;-84
2023/06/24 04:09:14;;;;;;;4.43;3.60;;;23.60;79.40;;;;;;5035315;28;20025;-80
2023/06/24 04:11:40;;;;;;;4.05;3.55;;;23.70;79.50;;;;;;5033907;28;20041;-84
2023/06/24 04:14:06;;;;;;;5.38;3.88;;;23.60;79.40;;;;;;5017637;28;20037;-83
2023/06/24 04:16:33;;;;;;;4.78;3.22;;;23.70;79.50;;;;;;5033899;28;20113;-84
2023/06/24 04:18:58;;;;;;;4.10;3.63;;;23.70;79.50;;;;;;5034713;28;20125;-84
2023/06/24 04:21:25;;;;;;;3.72;3.03;;;23.60;79.50;;;;;;5034811;28;20108;-84
2023/06/24 04:23:51;;;;;;;4.30;3.88;;;23.60;79.60;;;;;;5033916;28;20037;-84
2023/06/24 04:26:17;;;;;;;4.32;3.72;;;23.70;79.60;;;;;;5035182;28;20461;-84
2023/06/24 04:28:42;;;;;;;3.30;3.03;;;23.70;79.60;;;;;;5034931;28;20466;-84
2023/06/24 04:31:08;;;;;;;6.00;3.35;;;23.70;79.50;;;;;;5033457;28;20037;-84
2023/06/24 04:33:33;;;;;;;3.92;3.47;;;23.70;79.40;;;;;;5033578;28;20037;-84
2023/06/24 04:36:00;;;;;;;3.67;3.38;;;23.70;79.40;;;;;;5034907;28;20030;-85
2023/06/24 04:38:25;;;;;;;3.95;3.53;;;23.70;79.50;;;;;;5035064;28;20026;-85
2023/06/24 04:40:51;;;;;;;3.65;3.35;;;23.70;79.60;;;;;;5034608;28;20052;-85
2023/06/24 04:43:17;;;;;;;4.72;3.78;;;23.70;79.60;;;;;;5033056;28;20053;-84
2023/06/24 04:45:42;;;;;;;4.65;4.20;;;23.70;79.70;;;;;;5017605;28;20044;-84
2023/06/24 04:48:08;;;;;;;4.65;4.22;;;23.70;79.80;;;;;;5033855;28;20029;-84
2023/06/24 04:50:34;;;;;;;6.50;5.68;;;23.70;79.90;;;;;;5033052;28;20030;-85
2023/06/24 04:53:01;;;;;;;4.57;4.18;;;23.70;80.00;;;;;;5033380;28;20032;-85
2023/06/24 04:55:29;;;;;;;6.07;4.28;;;23.70;80.10;;;;;;5034041;28;20037;-85
2023/06/24 04:57:55;;;;;;;5.20;4.70;;;23.80;80.00;;;;;;5033040;28;20021;-85
2023/06/24 05:00:24;;;;;;;4.32;4.03;;;23.70;80.00;;;;;;5034533;28;20036;-85
2023/06/24 05:02:50;;;;;;;5.05;4.55;;;23.70;80.00;;;;;;5033038;28;20120;-85
2023/06/24 05:05:15;;;;;;;4.72;4.32;;;23.80;80.10;;;;;;5033947;28;20036;-85
2023/06/24 05:07:41;;;;;;;3.55;3.25;;;23.70;80.00;;;;;;5034469;28;20029;-84
2023/06/24 05:10:07;;;;;;;5.85;5.32;;;23.70;80.00;;;;;;5033797;28;20041;-84
2023/06/24 05:12:33;;;;;;;10.32;7.35;;;23.80;80.10;;;;;;5034109;28;20094;-85
2023/06/24 05:14:58;;;;;;;6.50;5.90;;;23.80;80.50;;;;;;5016574;28;20034;-85
2023/06/24 05:17:24;;;;;;;7.28;5.97;;;23.70;80.70;;;;;;5032910;28;20068;-85
2023/06/24 05:19:49;;;;;;;5.40;4.50;;;23.70;80.90;;;;;;5016545;28;20497;-85
2023/06/24 05:22:16;;;;;;;7.60;5.65;;;23.60;80.70;;;;;;5034335;28;20032;-83
2023/06/24 05:24:41;;;;;;;8.40;6.97;;;23.60;80.80;;;;;;5032672;28;20034;-83
2023/06/24 05:27:07;;;;;;;5.57;5.00;;;23.60;81.00;;;;;;5032898;28;20030;-83
2023/06/24 05:29:34;;;;;;;8.18;6.07;;;23.50;80.90;;;;;;5034828;28;20042;-84
2023/06/24 05:32:01;;;;;;;8.80;6.05;;;23.50;81.00;;;;;;5032783;28;20041;-84
2023/06/24 05:34:27;;;;;;;5.63;5.13;;;23.40;81.00;;;;;;5032710;28;20042;-84
2023/06/24 05:36:53;;;;;;;7.80;6.60;;;23.40;80.90;;;;;;5032914;28;20038;-84
2023/06/24 05:39:20;;;;;;;8.43;7.63;;;23.40;80.90;;;;;;5032299;28;20030;-84
2023/06/24 05:41:45;;;;;;;6.65;5.95;;;23.40;80.60;;;;;;5016230;28;20489;-84
2023/06/24 05:44:11;;;;;;;9.02;8.13;;;23.40;80.30;;;;;;5016417;28;20085;-84
2023/06/24 05:46:37;;;;;;;8.25;7.30;;;23.40;80.30;;;;;;5016486;28;20061;-84
2023/06/24 05:49:03;;;;;;;7.68;6.88;;;23.30;80.10;;;;;;5032877;28;20033;-83
2023/06/24 05:51:29;;;;;;;8.15;5.13;;;23.30;80.10;;;;;;5032875;28;20030;-84
2023/06/24 05:53:55;;;;;;;7.07;4.95;;;23.30;79.60;;;;;;5033144;28;20040;-84
2023/06/24 05:56:22;;;;;;;8.27;4.40;;;23.30;79.30;;;;;;5016523;28;20120;-84
2023/06/24 05:58:48;;;;;;;5.25;4.35;;;23.30;78.60;;;;;;5032425;28;20469;-84
2023/06/24 06:01:14;;;;;;;6.43;5.38;;;23.30;78.60;;;;;;5032358;28;20037;-84
2023/06/24 06:03:39;;;;;;;5.05;4.22;;;23.40;78.30;;;;;;5032659;28;20454;-84
2023/06/24 06:06:05;;;;;;;5.90;4.88;;;23.30;78.10;;;;;;5032175;28;20033;-83
2023/06/24 06:08:31;;;;;;;5.20;4.75;;;23.30;78.10;;;;;;5016054;28;20043;-83
2023/06/24 06:10:56;;;;;;;6.28;4.95;;;23.30;78.70;;;;;;5015650;28;20084;-83
2023/06/24 06:13:22;;;;;;;5.40;4.85;;;23.30;78.60;;;;;;5032106;28;20036;-83
2023/06/24 06:15:48;;;;;;;7.85;6.05;;;23.40;77.60;;;;;;5033168;28;20037;-84
2023/06/24 06:18:13;;;;;;;7.43;6.20;;;23.30;77.40;;;;;;5036131;28;20026;-83
2023/06/24 06:20:39;;;;;;;8.52;5.75;;;23.30;77.00;;;;;;5036424;28;20038;-83
2023/06/24 06:23:04;;;;;;;6.97;5.00;;;23.20;76.50;;;;;;5019533;28;20034;-83
2023/06/24 06:25:30;;;;;;;6.07;4.68;;;23.30;77.10;;;;;;5037497;28;20041;-84
2023/06/24 06:27:57;;;;;;;6.70;4.68;;;23.40;77.60;;;;;;5036043;28;20029;-83
2023/06/24 06:30:23;;;;;;;8.15;5.53;;;23.50;77.90;;;;;;5035847;28;20451;-83
2023/06/24 06:32:49;;;;;;;10.02;6.60;;;23.50;77.80;;;;;;5036844;28;20029;-84
2023/06/24 06:35:14;;;;;;;8.15;6.20;;;23.60;76.80;;;;;;5035618;28;20041;-83
2023/06/24 06:37:40;;;;;;;8.02;6.03;;;23.60;77.10;;;;;;5036221;28;20037;-83
2023/06/24 06:40:06;;;;;;;7.32;5.80;;;23.70;77.30;;;;;;5037518;28;20029;-83
2023/06/24 06:42:32;;;;;;;7.57;6.53;;;23.70;77.40;;;;;;5037292;28;20079;-83
2023/06/24 06:44:58;;;;;;;9.98;6.82;;;23.80;77.50;;;;;;5036207;28;20521;-84
2023/06/24 06:47:23;;;;;;;9.65;7.53;;;23.90;77.30;;;;;;5037257;28;20030;-84
2023/06/24 06:49:49;;;;;;;7.88;7.03;;;23.90;77.10;;;;;;5036854;28;20076;-83
2023/06/24 06:52:16;;;;;;;8.52;5.50;;;23.90;77.40;;;;;;5037933;28;20032;-83
2023/06/24 06:54:41;;;;;;;7.03;5.30;;;23.90;77.40;;;;;;5037128;28;20045;-83
2023/06/24 06:57:07;;;;;;;9.50;6.75;;;24.00;77.40;;;;;;5037620;28;20029;-82
2023/06/24 06:59:33;;;;;;;7.88;5.90;;;24.10;77.40;;;;;;5037016;28;20033;-84
2023/06/24 07:01:58;;;;;;;8.65;6.20;;;24.10;76.60;;;;;;5019330;28;20037;-83
2023/06/24 07:04:24;;;;;;;7.63;6.38;;;24.20;74.90;;;;;;5020603;28;20124;-83
2023/06/24 07:06:50;;;;;;;7.63;5.68;;;24.20;75.00;;;;;;5020221;28;20397;-84
2023/06/24 07:09:16;;;;;;;8.35;6.15;;;24.20;74.70;;;;;;5037314;28;20083;-83
2023/06/24 07:11:42;;;;;;;7.35;5.97;;;24.10;74.50;;;;;;5019140;28;20025;-83
2023/06/24 07:14:08;;;;;;;7.10;5.78;;;24.20;74.90;;;;;;5036360;28;20075;-84
2023/06/24 07:16:33;;;;;;;6.50;5.65;;;24.20;74.40;;;;;;5035552;28;20021;-84
2023/06/24 07:18:59;;;;;;;7.45;6.10;;;24.20;73.50;;;;;;5035330;28;20029;-84
2023/06/24 07:21:25;;;;;;;10.05;7.25;;;24.20;74.10;;;;;;5036311;28;20033;-85
2023/06/24 07:23:50;;;;;;;8.70;6.78;;;24.20;74.80;;;;;;5035764;28;20037;-84
2023/06/24 07:26:16;;;;;;;7.95;6.35;;;24.20;75.10;;;;;;5034881;28;20037;-84
2023/06/24 07:28:42;;;;;;;12.90;7.03;;;24.20;75.10;;;;;;5034846;28;20389;-83
2023/06/24 07:31:07;;;;;;;6.97;5.88;;;24.30;75.50;;;;;;5018722;28;20025;-82
2023/06/24 07:33:33;;;;;;;7.75;6.43;;;24.30;75.30;;;;;;5018606;28;20033;-83
2023/06/24 07:35:59;;;;;;;7.88;5.72;;;24.40;75.30;;;;;;5036171;28;20029;-84
2023/06/24 07:38:25;;;;;;;7.18;5.80;;;24.50;75.40;;;;;;5036310;28;20528;-83
2023/06/24 07:40:50;;;;;;;5.30;4.53;;;24.50;73.90;;;;;;5036076;28;20444;-84
2023/06/24 07:43:16;;;;;;;7.93;4.95;;;24.60;72.60;;;;;;5034650;28;20114;-83
2023/06/24 07:45:41;;;;;;;5.55;4.88;;;24.60;72.50;;;;;;5035302;28;20083;-84
2023/06/24 07:48:07;;;;;;;5.05;4.25;;;24.60;72.00;;;;;;5036169;28;20033;-83
2023/06/24 07:50:34;;;;;;;7.35;3.47;;;24.70;71.50;;;;;;5034752;28;20071;-84
2023/06/24 07:53:00;;;;;;;7.97;4.28;;;24.70;71.40;;;;;;5035991;28;20025;-84
2023/06/24 07:55:25;;;;;;;6.63;4.10;;;24.80;71.10;;;;;;5034599;28;20041;-84
2023/06/24 07:57:51;;;;;;;7.35;4.40;;;24.90;71.00;;;;;;5036224;28;20047;-84
2023/06/24 08:00:17;;;;;;;5.95;4.72;;;25.00;71.00;;;;;;5034345;28;20492;-84
2023/06/24 08:02:42;;;;;;;5.63;3.47;;;25.10;70.40;;;;;;5034725;28;20026;-84
2023/06/24 08:05:11;;;;;;;7.15;3.35;;;25.10;70.00;;;;;;5034989;28;20033;-85
2023/06/24 08:07:40;;;;;;;4.88;3.55;;;25.10;68.30;;;;;;5035125;28;20039;-84
2023/06/24 08:10:06;;;;;;;5.95;3.78;;;25.20;68.30;;;;;;5034674;28;20116;-83
2023/06/24 08:12:32;;;;;;;5.82;3.33;;;25.20;68.20;;;;;;5035220;28;20377;-84
2023/06/24 08:14:57;;;;;;;4.40;2.92;;;25.20;67.80;;;;;;5034272;28;20087;-84
2023/06/24 08:17:23;;;;;;;3.25;2.15;;;25.30;67.90;;;;;;5034403;28;20087;-84
2023/06/24 08:19:49;;;;;;;3.33;2.53;;;25.30;66.70;;;;;;5034354;28;20032;-85
2023/06/24 08:22:14;;;;;;;4.75;2.50;;;25.40;66.80;;;;;;5034787;28;20030;-85
2023/06/24 08:24:40;;;;;;;6.13;3.53;;;25.50;66.40;;;;;;5034948;28;20037;-83
2023/06/24 08:27:06;;;;;;;3.92;3.00;;;25.50;66.40;;;;;;5035326;28;20402;-85
2023/06/24 08:29:31;;;;;;;3.17;2.20;;;25.60;66.70;;;;;;5034407;28;20397;-83
2023/06/24 08:31:57;;;;;;;3.22;2.20;;;25.70;67.00;;;;;;5033766;28;20099;-86
2023/06/24 08:34:22;;;;;;;4.95;2.90;;;25.70;66.20;;;;;;5035316;28;20125;-83
2023/06/24 08:36:48;;;;;;;3.88;2.58;;;25.70;65.00;;;;;;5034872;28;20060;-85
2023/06/24 08:39:14;;;;;;;3.45;2.80;;;25.70;65.70;;;;;;5033564;28;20100;-83
2023/06/24 08:41:39;;;;;;;5.75;3.58;;;25.80;65.90;;;;;;5016913;28;20034;-84
2023/06/24 08:44:05;;;;;;;3.60;3.17;;;25.80;65.60;;;;;;5016623;28;20053;-85
2023/06/24 08:46:33;;;;;;;2.65;2.40;;;25.90;66.70;;;;;;5033669;28;20120;-85
2023/06/24 08:49:16;;;;;;;2.78;2.20;;;26.00;67.20;;;;;;5033857;28;20021;-84
2023/06/24 08:51:45;;;;;;;3.30;2.58;;;26.10;66.30;;;;;;5034475;28;20494;-84
2023/06/24 08:54:14;;;;;;;3.72;2.33;;;26.10;64.20;;;;;;5034893;28;20061;-84
2023/06/24 08:56:41;;;;;;;2.83;2.20;;;26.20;63.80;;;;;;5034571;28;20036;-85
2023/06/24 08:59:08;;;;;;;3.08;1.98;;;26.20;63.40;;;;;;5034973;28;20112;-85
2023/06/24 09:01:34;;;;;;;3.42;2.67;;;26.30;64.20;;;;;;5033516;28;20030;-84
2023/06/24 09:04:00;;;;;;;4.45;2.80;;;26.30;63.10;;;;;;5016824;28;20480;-85
2023/06/24 09:06:26;;;;;;;5.20;3.13;;;26.30;63.10;;;;;;5034512;28;20079;-86
2023/06/24 09:08:55;;;;;;;6.30;3.83;;;26.30;62.40;;;;;;5033437;28;20116;-86
2023/06/24 09:11:28;;;;;;;4.70;4.22;;;26.20;62.80;;;;;;5034156;28;20034;-86
2023/06/24 09:13:58;;;;;;;4.82;3.65;;;26.20;63.50;;;;;;5034324;28;20030;-88
2023/06/24 09:16:24;;;;;;;5.82;4.53;;;26.20;63.90;;;;;;5033338;28;20037;-88
2023/06/24 09:18:51;;;;;;;5.25;4.05;;;26.10;62.80;;;;;;5033009;28;20034;-86
2023/06/24 09:21:30;;;;;;;7.07;3.38;;;26.00;62.90;;;;;;5034197;28;20038;-86
2023/06/24 09:23:57;;;;;;;3.92;3.47;;;26.00;62.70;;;;;;5032753;28;20386;-84
2023/06/24 09:26:27;;;;;;;6.22;3.92;;;25.90;62.80;;;;;;5034216;28;20520;-88
2023/06/24 09:28:54;;;;;;;5.10;3.83;;;25.90;62.90;;;;;;5017083;28;20354;-87
2023/06/24 09:31:20;;;;;;;5.88;3.60;;;25.90;63.20;;;;;;5033056;28;20369;-85
2023/06/24 09:33:46;;;;;;;6.18;3.58;;;26.00;63.50;;;;;;5034158;28;20032;-87
2023/06/24 09:36:16;;;;;;;10.15;3.17;;;26.10;63.50;;;;;;5034149;28;20053;-86
2023/06/24 09:38:44;;;;;;;5.30;3.70;;;26.10;63.20;;;;;;5032927;28;20030;-87
2023/06/24 09:41:10;;;;;;;4.15;3.10;;;26.20;63.40;;;;;;5016173;28;20036;-86
2023/06/24 09:43:39;;;;;;;6.88;3.28;;;26.20;63.60;;;;;;5034265;28;20408;-87
2023/06/24 09:46:05;;;;;;;5.53;2.95;;;26.30;62.90;;;;;;5033079;28;20029;-87
2023/06/24 09:48:31;;;;;;;4.82;3.00;;;26.40;62.80;;;;;;5033619;28;20029;-88
2023/06/24 09:51:01;;;;;;;4.05;2.55;;;26.40;61.60;;;;;;5037463;28;20362;-85
2023/06/24 09:53:30;;;;;;;3.80;3.00;;;26.50;61.60;;;;;;5037956;28;20061;-86
2023/06/24 09:55:58;;;;;;;5.05;2.40;;;26.60;61.30;;;;;;5036570;28;20080;-86
2023/06/24 09:58:24;;;;;;;3.35;2.65;;;26.60;61.60;;;;;;5036893;28;20053;-85
2023/06/24 10:00:51;;;;;;;5.03;3.20;;;26.70;62.00;;;;;;5036632;28;20474;-87
2023/06/24 10:03:18;;;;;;;6.25;3.92;;;26.90;62.90;;;;;;5037091;28;20037;-86
2023/06/24 10:05:44;;;;;;;4.63;4.07;;;27.10;62.70;;;;;;5037795;28;20037;-88
2023/06/24 10:08:11;;;;;;;7.95;3.30;;;27.30;62.10;;;;;;5038333;28;20404;-86
2023/06/24 10:10:36;;;;;;;7.63;4.15;;;27.50;61.80;;;;;;5037692;28;20151;-85
2023/06/24 10:13:02;;;;;;;4.57;3.53;;;27.60;61.80;;;;;;5036318;28;20116;-87
2023/06/24 10:15:28;;;;;;;5.47;3.47;;;27.80;61.70;;;;;;5037989;28;20038;-85
2023/06/24 10:17:53;;;;;;;5.28;3.45;;;27.80;60.30;;;;;;5036540;28;20044;-87
2023/06/24 10:20:26;;;;;;;6.60;3.25;;;27.90;59.30;;;;;;5036502;28;20030;-84
2023/06/24 10:22:53;;;;;;;4.47;3.60;;;27.90;59.80;;;;;;5037958;28;20025;-86
2023/06/24 10:25:18;;;;;;;6.03;4.28;;;27.90;59.90;;;;;;5037429;28;20112;-86
2023/06/24 10:27:44;;;;;;;5.32;3.88;;;28.00;59.80;;;;;;5020038;28;20061;-87
2023/06/24 10:30:23;;;;;;;4.97;3.28;;;28.00;59.30;;;;;;5036967;28;20443;-86
2023/06/24 10:32:55;;;;;;;4.10;3.30;;;28.00;58.90;;;;;;5036440;28;20477;-85
2023/06/24 10:35:30;;;;;;;6.80;4.00;;;28.10;59.60;;;;;;5037299;28;20040;-86
2023/06/24 10:37:57;;;;;;;4.68;3.70;;;28.20;59.50;;;;;;5037015;28;20057;-88
2023/06/24 10:40:49;;;;;;;5.47;4.30;;;28.20;59.30;;;;;;5036120;28;20394;-83
2023/06/24 10:43:24;;;;;;;5.78;4.07;;;28.30;59.00;;;;;;5036103;28;20050;-84
2023/06/24 10:45:51;;;;;;;6.30;4.30;;;28.30;59.10;;;;;;5041857;28;20037;-80
2023/06/24 10:48:19;;;;;;;4.22;3.72;;;28.30;59.10;;;;;;5036783;28;20029;-81
2023/06/24 10:50:45;;;;;;;5.20;3.35;;;28.30;59.20;;;;;;5035567;28;20029;-80
2023/06/24 10:53:13;;;;;;;7.13;4.00;;;28.40;60.00;;;;;;5036686;28;20083;-80
2023/06/24 10:55:39;;;;;;;5.00;3.67;;;28.40;58.90;;;;;;5018845;28;20041;-80
2023/06/24 10:58:12;;;;;;;5.13;3.72;;;28.40;58.30;;;;;;5036700;28;20022;-80
2023/06/24 11:00:42;;;;;;;5.45;3.40;;;28.40;58.60;;;;;;5019179;28;20057;-80
2023/06/24 11:03:12;;;;;;;5.28;4.13;;;28.40;58.80;;;;;;5019029;28;20079;-81
2023/06/24 11:05:40;;;;;;;4.13;3.22;;;28.50;58.50;;;;;;5036923;28;20034;-81
2023/06/24 11:08:06;;;;;;;4.68;3.50;;;28.60;59.00;;;;;;5035468;28;20022;-81
2023/06/24 11:10:32;;;;;;;6.00;3.72;;;28.70;59.50;;;;;;5018925;28;20033;-81
2023/06/24 11:13:05;;;;;;;4.80;3.90;;;28.80;59.20;;;;;;5035326;28;20151;-81
2023/06/24 11:15:32;;;;;;;6.15;4.18;;;28.90;58.20;;;;;;5036946;28;20076;-81
2023/06/24 11:17:58;;;;;;;5.05;3.83;;;28.90;58.60;;;;;;5036667;28;20104;-80
2023/06/24 11:20:24;;;;;;;5.53;3.70;;;29.00;60.50;;;;;;5018356;28;20107;-81
2023/06/24 11:22:49;;;;;;;5.13;3.28;;;29.20;60.20;;;;;;5034840;28;20107;-81
2023/06/24 11:25:17;;;;;;;7.07;3.10;;;29.30;59.30;;;;;;5018482;28;20036;-81
2023/06/24 11:27:43;;;;;;;3.75;3.15;;;29.40;59.20;;;;;;5036625;28;20036;-81
2023/06/24 11:30:09;;;;;;;5.07;3.33;;;29.50;60.00;;;;;;5035924;28;20109;-81
2023/06/24 11:32:38;;;;;;;5.75;4.00;;;29.50;59.60;;;;;;5035929;28;20025;-81
2023/06/24 11:35:09;;;;;;;5.25;3.72;;;29.60;59.40;;;;;;5036053;28;20053;-81
2023/06/24 11:37:35;;;;;;;4.87;3.47;;;29.50;58.40;;;;;;5036352;28;20030;-80
2023/06/24 11:40:08;;;;;;;5.88;3.35;;;29.50;58.00;;;;;;5035085;28;20033;-80
2023/06/24 11:42:39;;;;;;;4.05;2.70;;;29.50;58.90;;;;;;5035799;28;20049;-81
2023/06/24 11:45:07;;;;;;;6.00;3.00;;;29.50;58.20;;;;;;5034497;28;20030;-81
2023/06/24 11:47:35;;;;;;;2.78;2.50;;;29.50;58.00;;;;;;5036031;28;20030;-81
2023/06/24 11:50:02;;;;;;;5.88;2.60;;;29.60;58.30;;;;;;5034642;28;20033;-81
2023/06/24 11:52:45;;;;;;;4.30;2.40;;;29.60;57.90;;;;;;5035695;28;20033;-81
2023/06/24 11:55:12;;;;;;;6.03;3.13;;;29.60;58.10;;;;;;5033978;28;20125;-81
2023/06/24 11:57:58;;;;;;;4.85;2.72;;;29.60;57.00;;;;;;5017821;28;20478;-81
2023/06/24 12:00:31;;;;;;;2.58;2.38;;;29.60;56.80;;;;;;5034276;28;20047;-80
2023/06/24 12:02:59;;;;;;;3.80;2.42;;;29.70;57.10;;;;;;5035434;28;20085;-80
2023/06/24 12:05:31;;;;;;;5.70;2.60;;;29.70;56.80;;;;;;5035502;28;20112;-81
2023/06/24 12:08:01;;;;;;;4.18;2.58;;;29.70;56.70;;;;;;5034918;28;20034;-81
2023/06/24 12:10:28;;;;;;;5.20;2.78;;;29.80;57.10;;;;;;5018557;28;20108;-81
2023/06/24 12:12:55;;;;;;;4.57;3.10;;;29.80;56.70;;;;;;5033215;28;20040;-81
2023/06/24 12:15:21;;;;;;;4.43;2.65;;;29.80;56.60;;;;;;5035308;28;20493;-81
2023/06/24 12:17:47;;;;;;;4.40;2.90;;;29.90;58.30;;;;;;5034000;28;20108;-81
2023/06/24 12:20:17;;;;;;;2.83;2.63;;;30.00;58.10;;;;;;5033652;28;20480;-81
2023/06/24 12:22:44;;;;;;;3.25;2.63;;;30.00;57.80;;;;;;5018117;28;20049;-80
2023/06/24 12:25:10;;;;;;;5.97;3.33;;;30.20;57.80;;;;;;5034716;28;20031;-81
2023/06/24 12:27:35;;;;;;;5.07;2.65;;;30.20;56.40;;;;;;5035060;28;20033;-81
2023/06/24 12:30:02;;;;;;;2.97;1.95;;;30.20;56.30;;;;;;5033556;28;20041;-81
2023/06/24 12:32:27;;;;;;;4.25;2.13;;;30.20;56.30;;;;;;5035242;28;20100;-80
2023/06/24 12:34:53;;;;;;;3.00;1.95;;;30.30;58.00;;;;;;5033695;28;20120;-80
2023/06/24 12:37:19;;;;;;;4.75;2.80;;;30.30;58.40;;;;;;5017583;28;20361;-80
2023/06/24 12:39:45;;;;;;;2.88;2.53;;;30.40;57.70;;;;;;5016998;28;20029;-80
2023/06/24 12:42:11;;;;;;;4.22;2.38;;;30.40;56.80;;;;;;5033231;28;20069;-80
2023/06/24 12:44:38;;;;;;;2.97;2.65;;;30.50;56.90;;;;;;5035631;28;20040;-84
2023/06/24 12:47:04;;;;;;;4.85;3.00;;;30.50;55.80;;;;;;5041147;28;20037;-82